TimeAKDT,TemperatureF,Dew PointF,Humidity,Sea Level PressureIn,VisibilityMPH,Wind Direction,Wind SpeedMPH,Gust SpeedMPH,PrecipitationIn,Events,Conditions,WindDirDegrees,DateUTC
12:07 AM,39.2,39.2,100,30.11,0.2,NE,4.6,-,N/A,Fog,Fog,40,2012-10-10 08:07:00
12:15 AM,39.2,39.2,100,30.11,0.5,NNE,3.5,-,N/A,Fog,Fog,30,2012-10-10 08:15:00
12:53 AM,39.0,39.0,100,30.11,2.0,NNE,4.6,-,N/A,,Overcast,30,2012-10-10 08:53:00
1:00 AM,37.4,37.4,100,30.10,10.0,NNE,4.6,-,N/A,,Overcast,30,2012-10-10 09:00:00
1:07 AM,37.4,37.4,100,30.10,10.0,NNE,4.6,-,N/A,,Mostly Cloudy,20,2012-10-10 09:07:00
1:23 AM,37.4,37.4,100,30.10,10.0,NE,4.6,-,N/A,,Scattered Clouds,40,2012-10-10 09:23:00
1:53 AM,37.0,37.0,100,30.10,10.0,NE,5.8,-,N/A,,Clear,40,2012-10-10 09:53:00
2:53 AM,37.0,37.0,100,30.09,10.0,NNE,8.1,-,N/A,,Clear,20,2012-10-10 10:53:00
3:32 AM,37.4,37.4,100,30.07,10.0,NNE,6.9,-,N/A,,Partly Cloudy,20,2012-10-10 11:32:00
3:53 AM,37.0,37.0,100,30.08,10.0,NNE,8.1,-,N/A,,Partly Cloudy,20,2012-10-10 11:53:00
4:53 AM,37.0,36.0,96,30.06,10.0,North,9.2,-,N/A,,Clear,10,2012-10-10 12:53:00
5:53 AM,36.0,36.0,100,30.06,10.0,North,6.9,-,N/A,,Clear,10,2012-10-10 13:53:00
6:53 AM,36.0,36.0,100,30.04,10.0,NNE,9.2,-,N/A,,Clear,20,2012-10-10 14:53:00
7:39 AM,35.6,35.6,100,30.03,10.0,NE,6.9,-,N/A,,Scattered Clouds,40,2012-10-10 15:39:00
7:51 AM,35.6,35.6,100,30.02,10.0,NNE,5.8,-,N/A,,Mostly Cloudy,30,2012-10-10 15:51:00
7:53 AM,36.0,36.0,100,30.03,10.0,NNE,6.9,-,N/A,,Mostly Cloudy,20,2012-10-10 15:53:00
8:17 AM,35.6,35.6,100,30.02,2.0,North,8.1,-,N/A,,Overcast,10,2012-10-10 16:17:00
8:39 AM,35.6,35.6,100,30.01,5.0,North,8.1,-,N/A,,Overcast,10,2012-10-10 16:39:00
8:53 AM,36.0,35.1,97,30.02,4.0,North,10.4,-,N/A,,Overcast,10,2012-10-10 16:53:00
9:29 AM,37.4,35.6,93,30.02,10.0,NNE,8.1,-,N/A,,Scattered Clouds,20,2012-10-10 17:29:00
9:53 AM,37.0,37.0,100,30.03,10.0,NNE,6.9,-,N/A,,Scattered Clouds,30,2012-10-10 17:53:00
10:53 AM,37.9,37.9,100,30.01,9.0,NNE,6.9,-,N/A,,Scattered Clouds,20,2012-10-10 18:53:00
11:53 AM,39.0,37.9,96,30.01,10.0,North,10.4,-,N/A,,Scattered Clouds,10,2012-10-10 19:53:00
12:53 PM,46.0,42.1,86,30.00,10.0,North,10.4,-,N/A,,Scattered Clouds,10,2012-10-10 20:53:00
1:53 PM,50.0,42.1,74,29.99,10.0,ENE,4.6,-,N/A,,Clear,70,2012-10-10 21:53:00
2:53 PM,48.9,41.0,74,29.99,10.0,NE,4.6,-,N/A,,Clear,50,2012-10-10 22:53:00
3:53 PM,50.0,41.0,71,29.97,10.0,Calm,Calm,-,N/A,,Clear,0,2012-10-10 23:53:00
4:53 PM,52.0,42.1,69,29.95,10.0,Calm,Calm,-,N/A,,Clear,0,2012-10-11 00:53:00
5:53 PM,51.1,42.1,71,29.94,10.0,SE,4.6,-,N/A,,Clear,130,2012-10-11 01:53:00
6:53 PM,46.9,42.1,83,29.94,10.0,SSW,4.6,-,N/A,,Clear,210,2012-10-11 02:53:00
7:53 PM,43.0,41.0,93,29.93,10.0,South,4.6,-,N/A,,Clear,190,2012-10-11 03:53:00
8:53 PM,42.1,39.9,92,29.93,10.0,WNW,4.6,-,N/A,,Clear,300,2012-10-11 04:53:00
9:53 PM,41.0,39.0,93,29.92,10.0,WNW,5.8,-,N/A,,Clear,300,2012-10-11 05:53:00
10:53 PM,39.0,37.9,96,29.91,10.0,NW,5.8,-,N/A,,Clear,310,2012-10-11 06:53:00
11:53 PM,37.9,37.9,100,29.90,10.0,NNW,5.8,-,N/A,,Clear,330,2012-10-11 07:53:00